createdAt,value
2023-05-01T00:00:09.877Z,4.80
2023-05-01T00:02:38.637Z,5.10
2023-05-01T00:05:09.426Z,5.63
2023-05-01T00:07:38.151Z,5.40
2023-05-01T00:10:07.644Z,5.70
2023-05-01T00:12:35.994Z,5.60
2023-05-01T00:15:04.607Z,5.75
2023-05-01T00:17:34.438Z,5.75
2023-05-01T00:20:02.776Z,5.60
2023-05-01T00:22:31.488Z,5.13
2023-05-01T00:24:59.758Z,5.20
2023-05-01T00:27:28.027Z,5.40
2023-05-01T00:29:56.571Z,5.38
2023-05-01T00:32:25.115Z,6.22
2023-05-01T00:34:56.645Z,5.60
2023-05-01T00:37:25.094Z,6.00
2023-05-01T00:39:53.659Z,5.80
2023-05-01T00:42:22.083Z,5.68
2023-05-01T00:44:50.287Z,6.43
2023-05-01T00:47:18.933Z,6.00
2023-05-01T00:49:48.851Z,5.88
2023-05-01T00:52:18.523Z,5.85
2023-05-01T00:54:51.984Z,5.97
2023-05-01T00:57:21.474Z,6.68
2023-05-01T00:59:50.197Z,6.22
2023-05-01T01:02:18.622Z,6.57
2023-05-01T01:04:48.661Z,6.95
2023-05-01T01:07:25.137Z,6.80
2023-05-01T01:10:08.630Z,6.68
2023-05-01T01:12:50.829Z,6.72
2023-05-01T01:15:27.572Z,6.97
2023-05-01T01:18:09.459Z,6.55
2023-05-01T01:20:44.282Z,6.50
2023-05-01T01:23:37.257Z,6.80
2023-05-01T01:26:15.307Z,7.05
2023-05-01T01:29:23.774Z,6.95
2023-05-01T01:32:05.708Z,6.63
2023-05-01T01:34:41.843Z,6.35
2023-05-01T01:37:16.928Z,6.65
2023-05-01T01:39:52.292Z,6.65
2023-05-01T01:42:26.912Z,6.68
2023-05-01T01:44:57.724Z,6.75
2023-05-01T01:47:32.053Z,6.40
2023-05-01T01:50:06.326Z,6.35
2023-05-01T01:52:37.220Z,7.25
2023-05-01T01:55:10.929Z,6.35
2023-05-01T01:57:43.147Z,6.68
2023-05-01T02:00:14.354Z,7.03
2023-05-01T02:02:44.286Z,6.32
2023-05-01T02:05:17.982Z,6.22
2023-05-01T02:07:51.304Z,6.70
2023-05-01T02:10:21.236Z,6.32
2023-05-01T02:12:52.484Z,6.95
2023-05-01T02:15:22.703Z,7.18
2023-05-01T02:17:53.741Z,6.60
2023-05-01T02:20:24.113Z,6.65
2023-05-01T02:22:54.207Z,7.28
2023-05-01T02:25:22.948Z,6.65
2023-05-01T02:28:01.297Z,7.50
2023-05-01T02:30:29.807Z,6.55
2023-05-01T02:32:58.521Z,6.43
2023-05-01T02:35:28.253Z,5.93
2023-05-01T02:37:56.562Z,7.38
2023-05-01T02:40:25.514Z,6.75
2023-05-01T02:42:54.867Z,7.00
2023-05-01T02:45:26.811Z,6.57
2023-05-01T02:47:59.953Z,7.07
2023-05-01T02:50:31.129Z,7.00
2023-05-01T02:53:00.730Z,6.70
2023-05-01T02:55:29.271Z,6.70
2023-05-01T02:58:00.415Z,6.55
2023-05-01T03:00:30.012Z,6.68
2023-05-01T03:02:58.596Z,6.82
2023-05-01T03:05:26.954Z,6.35
2023-05-01T03:07:56.574Z,6.65
2023-05-01T03:10:25.024Z,6.93
2023-05-01T03:12:53.356Z,6.80
2023-05-01T03:15:21.613Z,7.13
2023-05-01T03:17:50.012Z,6.93
2023-05-01T03:20:18.631Z,6.85
2023-05-01T03:22:46.914Z,6.82
2023-05-01T03:25:16.748Z,6.95
2023-05-01T03:27:45.048Z,7.20
2023-05-01T03:30:14.118Z,7.68
2023-05-01T03:32:42.600Z,7.95
2023-05-01T03:35:11.236Z,7.55
2023-05-01T03:37:39.529Z,7.78
2023-05-01T03:40:10.734Z,7.65
2023-05-01T03:42:40.621Z,7.25
2023-05-01T03:45:10.613Z,8.00
2023-05-01T03:47:38.910Z,7.07
2023-05-01T03:50:09.197Z,7.68
2023-05-01T03:52:39.016Z,6.97
2023-05-01T03:55:09.410Z,6.70
2023-05-01T03:57:39.087Z,6.97
2023-05-01T04:00:09.722Z,7.03
2023-05-01T04:02:38.071Z,6.28
2023-05-01T04:05:07.685Z,6.45
2023-05-01T04:07:36.593Z,6.30
2023-05-01T04:10:07.226Z,6.25
2023-05-01T04:12:35.561Z,6.18
2023-05-01T04:15:05.780Z,6.40
2023-05-01T04:17:36.586Z,6.38
2023-05-01T04:20:06.296Z,6.53
2023-05-01T04:22:34.791Z,5.90
2023-05-01T04:25:03.327Z,6.55
2023-05-01T04:27:31.632Z,6.57
2023-05-01T04:30:00.216Z,6.65
2023-05-01T04:32:30.294Z,6.60
2023-05-01T04:34:58.583Z,7.13
2023-05-01T04:37:26.856Z,6.47
2023-05-01T04:39:55.906Z,6.93
2023-05-01T04:42:24.606Z,7.00
2023-05-01T04:44:52.860Z,7.10
2023-05-01T04:47:21.454Z,6.55
2023-05-01T04:49:51.378Z,6.28
2023-05-01T04:52:19.731Z,7.20
2023-05-01T04:54:48.110Z,6.80
2023-05-01T04:57:16.390Z,7.35
2023-05-01T04:59:44.663Z,6.72
2023-05-01T05:02:12.969Z,6.75
2023-05-01T05:04:41.267Z,6.90
2023-05-01T05:07:10.925Z,6.80
2023-05-01T05:09:39.231Z,7.80
2023-05-01T05:12:07.616Z,6.60
2023-05-01T05:14:36.321Z,6.57
2023-05-01T05:17:04.649Z,6.47
2023-05-01T05:19:33.023Z,6.20
2023-05-01T05:22:03.958Z,6.20
2023-05-01T05:24:33.821Z,6.70
2023-05-01T05:27:02.772Z,6.07
2023-05-01T05:29:31.020Z,6.80
2023-05-01T05:31:59.838Z,6.00
2023-05-01T05:34:28.170Z,6.32
2023-05-01T05:36:56.437Z,6.25
2023-05-01T05:39:24.778Z,6.63
2023-05-01T05:41:54.427Z,6.80
2023-05-01T05:44:22.698Z,6.50
2023-05-01T05:46:51.024Z,6.15
2023-05-01T05:49:19.398Z,7.53
2023-05-01T05:51:49.976Z,6.72
2023-05-01T05:54:18.284Z,7.18
2023-05-01T05:56:49.004Z,6.55
2023-05-01T05:59:18.694Z,6.57
2023-05-01T06:01:50.148Z,6.85
2023-05-01T06:04:18.491Z,6.70
2023-05-01T06:06:49.825Z,6.47
2023-05-01T06:09:20.209Z,6.10
2023-05-01T06:11:51.224Z,6.43
2023-05-01T06:14:20.902Z,6.55
2023-05-01T06:16:51.429Z,6.53
2023-05-01T06:19:19.843Z,5.50
2023-05-01T06:21:51.338Z,6.47
2023-05-01T06:24:19.876Z,5.75
2023-05-01T06:26:49.885Z,6.25
2023-05-01T06:29:18.186Z,5.97
2023-05-01T06:31:52.441Z,6.70
2023-05-01T06:34:20.796Z,5.70
2023-05-01T06:36:49.234Z,7.15
2023-05-01T06:39:17.538Z,5.78
2023-05-01T06:41:47.897Z,6.18
2023-05-01T06:44:16.631Z,6.50
2023-05-01T06:46:50.513Z,6.70
2023-05-01T06:49:20.305Z,7.38
2023-05-01T06:51:48.899Z,6.78
2023-05-01T06:54:17.260Z,6.82
2023-05-01T06:56:45.640Z,6.68
2023-05-01T06:59:13.996Z,6.70
2023-05-01T07:01:52.259Z,6.22
2023-05-01T07:04:22.025Z,6.30
2023-05-01T07:06:50.325Z,6.95
2023-05-01T07:09:18.765Z,7.00
2023-05-01T07:11:50.440Z,7.60
2023-05-01T07:14:18.801Z,6.75
2023-05-01T07:16:47.439Z,6.95
2023-05-01T07:19:15.789Z,6.95
2023-05-01T07:21:47.294Z,6.97
2023-05-01T07:24:16.980Z,7.00
2023-05-01T07:26:47.774Z,7.32
2023-05-01T07:29:16.650Z,6.85
2023-05-01T07:31:46.513Z,6.90
2023-05-01T07:34:16.493Z,6.75
2023-05-01T07:36:49.100Z,6.63
2023-05-01T07:39:18.466Z,6.63
2023-05-01T07:41:47.556Z,7.43
2023-05-01T07:44:16.060Z,7.50
2023-05-01T07:46:44.359Z,7.22
2023-05-01T07:49:13.351Z,7.10
2023-05-01T07:51:42.441Z,6.93
2023-05-01T07:54:14.929Z,7.20
2023-05-01T07:56:43.552Z,6.78
2023-05-01T07:59:11.976Z,7.65
2023-05-01T08:01:41.349Z,7.47
2023-05-01T08:04:10.013Z,6.70
2023-05-01T08:06:38.521Z,7.65
2023-05-01T08:09:07.260Z,7.13
2023-05-01T08:11:37.022Z,7.25
2023-05-01T08:14:05.423Z,7.32
2023-05-01T08:16:35.060Z,7.88
2023-05-01T08:19:04.126Z,7.97
2023-05-01T08:21:32.465Z,7.55
2023-05-01T08:24:01.058Z,7.68
2023-05-01T08:26:29.407Z,7.60
2023-05-01T08:28:59.053Z,7.93
2023-05-01T08:31:27.433Z,8.27
2023-05-01T08:33:55.829Z,7.40
2023-05-01T08:36:24.462Z,8.05
2023-05-01T08:38:52.975Z,8.85
2023-05-01T08:41:23.843Z,8.52
2023-05-01T08:43:52.197Z,8.45
2023-05-01T08:46:28.001Z,8.77
2023-05-01T08:49:00.990Z,8.35
2023-05-01T08:51:31.379Z,8.32
2023-05-01T08:54:01.375Z,8.48
2023-05-01T08:56:31.672Z,8.55
2023-05-01T08:59:03.472Z,9.18
2023-05-01T09:01:36.875Z,9.45
2023-05-01T09:04:06.539Z,8.70
2023-05-01T09:06:41.155Z,9.07
2023-05-01T09:09:09.727Z,9.38
2023-05-01T09:11:38.573Z,9.20
2023-05-01T09:14:08.564Z,9.65
2023-05-01T09:16:38.352Z,9.15
2023-05-01T09:19:06.867Z,9.38
2023-05-01T09:21:35.288Z,9.55
2023-05-01T09:24:07.191Z,8.88
2023-05-01T09:26:38.558Z,9.45
2023-05-01T09:29:06.918Z,8.68
2023-05-01T09:31:35.292Z,9.50
2023-05-01T09:34:07.260Z,9.02
2023-05-01T09:36:37.594Z,8.95
2023-05-01T09:39:05.979Z,9.00
2023-05-01T09:41:34.351Z,8.95
2023-05-01T09:44:02.664Z,8.65
2023-05-01T09:46:43.801Z,9.43
2023-05-01T09:49:13.714Z,8.98
2023-05-01T09:51:42.564Z,9.55
2023-05-01T09:54:20.861Z,10.82
2023-05-01T09:56:50.145Z,10.60
2023-05-01T09:59:20.860Z,9.85
2023-05-01T10:01:52.506Z,11.13
2023-05-01T10:04:32.504Z,9.02
2023-05-01T10:07:13.304Z,8.73
2023-05-01T10:09:42.595Z,8.57
2023-05-01T10:12:10.944Z,8.65
2023-05-01T10:14:53.349Z,8.20
2023-05-01T10:17:22.702Z,8.27
2023-05-01T10:19:53.133Z,7.85
2023-05-01T10:22:22.031Z,7.75
2023-05-01T10:24:50.491Z,7.50
2023-05-01T10:27:19.716Z,7.63
2023-05-01T10:29:49.088Z,7.82
2023-05-01T10:32:17.448Z,7.75
2023-05-01T10:34:57.136Z,8.35
2023-05-01T10:37:32.698Z,8.30
2023-05-01T10:40:00.998Z,8.75
2023-05-01T10:42:29.752Z,8.20
2023-05-01T10:45:31.029Z,8.15
2023-05-01T10:47:59.566Z,7.95
2023-05-01T10:50:29.603Z,7.88
2023-05-01T10:53:20.005Z,8.60
2023-05-01T10:55:52.443Z,8.27
2023-05-01T10:58:59.388Z,8.68
2023-05-01T11:01:33.467Z,8.88
2023-05-01T11:04:05.379Z,8.27
2023-05-01T11:06:36.453Z,8.65
2023-05-01T11:09:38.117Z,8.82
2023-05-01T11:12:07.336Z,8.10
2023-05-01T11:15:08.265Z,8.38
2023-05-01T11:17:50.506Z,8.95
2023-05-01T11:20:55.292Z,9.00
2023-05-01T11:23:25.988Z,9.32
2023-05-01T11:26:06.384Z,8.20
2023-05-01T11:28:35.590Z,9.00
2023-05-01T11:31:04.225Z,9.80
2023-05-01T11:33:32.652Z,10.07
2023-05-01T11:36:02.625Z,10.20
2023-05-01T11:38:32.490Z,9.93
2023-05-01T11:41:05.357Z,9.75
2023-05-01T11:43:33.708Z,10.18
2023-05-01T11:46:05.039Z,11.43
2023-05-01T11:48:33.765Z,10.77
2023-05-01T11:51:02.488Z,10.80
2023-05-01T11:53:32.315Z,10.40
2023-05-01T11:56:06.951Z,10.13
2023-05-01T11:58:41.971Z,11.20
2023-05-01T12:01:12.797Z,11.27
2023-05-01T12:03:45.589Z,10.60
2023-05-01T12:06:15.084Z,10.23
2023-05-01T12:08:51.213Z,10.73
2023-05-01T12:11:20.679Z,10.00
2023-05-01T12:13:50.279Z,11.63
2023-05-01T12:16:19.424Z,11.02
2023-05-01T12:18:51.020Z,10.32
2023-05-01T12:21:19.864Z,11.10
2023-05-01T12:23:52.006Z,10.43
2023-05-01T12:26:21.930Z,10.77
2023-05-01T12:29:02.892Z,10.57
2023-05-01T12:31:32.116Z,10.38
2023-05-01T12:34:02.895Z,10.93
2023-05-01T12:36:33.496Z,9.90
2023-05-01T12:39:05.421Z,9.13
2023-05-01T12:41:37.204Z,9.77
2023-05-01T12:44:22.324Z,10.02
2023-05-01T12:47:01.148Z,9.30
2023-05-01T12:49:32.014Z,8.98
2023-05-01T12:52:03.641Z,8.88
2023-05-01T12:54:37.582Z,8.73
2023-05-01T12:57:11.911Z,8.00
2023-05-01T12:59:42.691Z,7.80
2023-05-01T13:02:14.917Z,7.35
2023-05-01T13:04:44.619Z,7.30
2023-05-01T13:07:14.945Z,7.10
2023-05-01T13:09:55.361Z,7.20
2023-05-01T13:12:24.364Z,7.15
2023-05-01T13:14:53.075Z,6.68
2023-05-01T13:17:26.923Z,7.10
2023-05-01T13:19:57.027Z,6.60
2023-05-01T13:22:33.497Z,6.70
2023-05-01T13:25:04.217Z,6.78
2023-05-01T13:27:33.034Z,7.85
2023-05-01T13:30:02.727Z,7.95
2023-05-01T13:32:31.643Z,7.68
2023-05-01T13:35:03.266Z,7.85
2023-05-01T13:37:32.095Z,7.97
2023-05-01T13:40:00.857Z,8.27
2023-05-01T13:42:30.860Z,8.13
2023-05-01T13:45:00.230Z,9.65
2023-05-01T13:47:29.203Z,8.27
2023-05-01T13:49:58.059Z,7.53
2023-05-01T13:52:26.898Z,7.70
2023-05-01T13:55:08.065Z,7.65
2023-05-01T13:57:40.744Z,7.43
2023-05-01T14:00:11.563Z,8.02
2023-05-01T14:02:48.391Z,8.40
2023-05-01T14:05:17.438Z,8.52
2023-05-01T14:07:55.184Z,10.13
2023-05-01T14:10:25.030Z,9.18
2023-05-01T14:12:57.815Z,9.07
2023-05-01T14:15:26.320Z,8.75
2023-05-01T14:17:54.652Z,9.48
2023-05-01T14:20:26.271Z,9.32
2023-05-01T14:22:55.699Z,8.55
2023-05-01T14:25:26.871Z,9.00
2023-05-01T14:27:57.877Z,8.70
2023-05-01T14:30:33.348Z,8.07
2023-05-01T14:33:03.736Z,8.45
2023-05-01T14:35:32.318Z,8.43
2023-05-01T14:38:13.076Z,8.63
2023-05-01T14:40:42.860Z,9.05
2023-05-01T14:43:18.149Z,8.10
2023-05-01T14:45:49.608Z,8.65
2023-05-01T14:48:23.931Z,8.35
2023-05-01T14:50:52.611Z,7.80
2023-05-01T14:53:20.895Z,9.38
2023-05-01T14:55:54.106Z,8.35
2023-05-01T14:58:23.971Z,8.65
2023-05-01T15:00:52.311Z,8.48
2023-05-01T15:03:20.638Z,8.63
2023-05-01T15:05:52.342Z,8.32
2023-05-01T15:08:20.733Z,8.68
2023-05-01T15:10:49.237Z,8.68
2023-05-01T15:13:17.599Z,9.38
2023-05-01T15:15:49.975Z,8.20
2023-05-01T15:18:18.527Z,8.10
2023-05-01T15:20:46.832Z,8.93
2023-05-01T15:23:15.197Z,9.10
2023-05-01T15:25:44.444Z,9.85
2023-05-01T15:28:14.123Z,10.90
2023-05-01T15:30:49.998Z,10.13
2023-05-01T15:33:19.303Z,10.23
2023-05-01T15:35:52.728Z,10.10
2023-05-01T15:38:21.809Z,10.43
2023-05-01T15:40:54.280Z,10.80
2023-05-01T15:43:23.435Z,10.85
2023-05-01T15:45:57.642Z,11.85
2023-05-01T15:48:26.368Z,12.38
2023-05-01T15:50:54.682Z,12.00
2023-05-01T15:53:22.941Z,11.88
2023-05-01T15:55:51.627Z,13.38
2023-05-01T15:58:19.920Z,12.98
2023-05-01T16:00:50.381Z,12.02
2023-05-01T16:03:20.357Z,13.50
2023-05-01T16:05:50.905Z,13.57
2023-05-01T16:08:19.720Z,14.27
2023-05-01T16:10:48.079Z,13.15
2023-05-01T16:13:16.396Z,13.43
2023-05-01T16:15:44.716Z,13.15
2023-05-01T16:18:21.147Z,13.15
2023-05-01T16:20:53.556Z,12.30
2023-05-01T16:23:22.649Z,13.40
2023-05-01T16:25:51.068Z,13.00
2023-05-01T16:28:19.361Z,13.07
2023-05-01T16:30:47.841Z,12.85
2023-05-01T16:33:20.889Z,12.85
2023-05-01T16:35:51.852Z,13.43
2023-05-01T16:38:20.774Z,14.07
2023-05-01T16:40:49.445Z,13.00
2023-05-01T16:43:17.955Z,14.00
2023-05-01T16:45:47.014Z,13.60
2023-05-01T16:48:22.799Z,13.82
2023-05-01T16:50:51.975Z,14.45
2023-05-01T16:53:21.451Z,15.07
2023-05-01T16:55:49.759Z,14.85
2023-05-01T16:58:18.069Z,15.68
2023-05-01T17:00:46.588Z,16.05
2023-05-01T17:03:16.195Z,14.98
2023-05-01T17:05:45.944Z,16.25
2023-05-01T17:08:14.198Z,16.40
2023-05-01T17:10:43.762Z,15.77
2023-05-01T17:13:14.541Z,16.05
2023-05-01T17:15:43.349Z,15.02
2023-05-01T17:18:11.721Z,17.10
2023-05-01T17:20:40.484Z,16.75
2023-05-01T17:23:10.817Z,15.82
2023-05-01T17:25:39.150Z,15.93
2023-05-01T17:28:07.504Z,16.90
2023-05-01T17:30:35.831Z,17.23
2023-05-01T17:33:04.454Z,16.50
2023-05-01T17:35:32.971Z,15.65
2023-05-01T17:38:01.292Z,16.23
2023-05-01T17:40:32.332Z,16.88
2023-05-01T17:43:00.982Z,17.65
2023-05-01T17:45:29.390Z,18.38
2023-05-01T17:47:57.743Z,18.25
2023-05-01T17:50:26.143Z,18.88
2023-05-01T17:52:54.420Z,19.45
2023-05-01T17:55:22.909Z,19.45
2023-05-01T17:57:53.719Z,18.98
2023-05-01T18:00:23.224Z,20.63
2023-05-01T18:02:51.894Z,20.40
2023-05-01T18:05:20.504Z,21.55
2023-05-01T18:07:49.147Z,20.98
2023-05-01T18:10:20.633Z,21.38
2023-05-01T18:12:49.902Z,20.98
2023-05-01T18:15:22.807Z,24.58
2023-05-01T18:17:51.984Z,24.20
2023-05-01T18:20:20.699Z,25.00
2023-05-01T18:22:53.409Z,25.45
2023-05-01T18:25:22.769Z,24.65
2023-05-01T18:27:51.214Z,25.38
2023-05-01T18:30:21.126Z,25.23
2023-05-01T18:32:49.897Z,25.63
2023-05-01T18:35:19.024Z,24.15
2023-05-01T18:37:50.963Z,25.00
2023-05-01T18:40:19.355Z,26.63
2023-05-01T18:42:50.782Z,25.73
2023-05-01T18:45:24.285Z,25.23
2023-05-01T18:47:52.695Z,25.45
2023-05-01T18:50:23.091Z,25.13
2023-05-01T18:52:51.774Z,26.08
2023-05-01T18:55:20.543Z,23.60
2023-05-01T18:57:52.224Z,23.98
2023-05-01T19:00:22.866Z,22.77
2023-05-01T19:02:53.036Z,21.50
2023-05-01T19:05:22.550Z,20.58
2023-05-01T19:07:51.218Z,21.08
2023-05-01T19:10:19.904Z,21.23
2023-05-01T19:12:50.466Z,22.23
2023-05-01T19:15:19.445Z,22.17
2023-05-01T19:17:49.504Z,24.48
2023-05-01T19:20:18.127Z,21.95
2023-05-01T19:22:46.822Z,21.73
2023-05-01T19:25:24.092Z,23.45
2023-05-01T19:27:52.777Z,23.33
2023-05-01T19:30:21.149Z,23.63
2023-05-01T19:35:20.333Z,23.45
2023-05-01T19:37:50.625Z,24.00
2023-05-01T19:40:19.389Z,23.30
2023-05-01T19:42:48.010Z,23.30
2023-05-01T19:45:18.018Z,23.27
2023-05-01T19:47:47.524Z,22.85
2023-05-01T19:50:18.807Z,25.05
2023-05-01T19:52:47.421Z,25.88
2023-05-01T19:55:17.074Z,26.90
2023-05-01T19:57:45.612Z,26.63
2023-05-01T20:00:15.116Z,27.98
2023-05-01T20:02:43.798Z,29.73
2023-05-01T20:05:13.208Z,28.60
2023-05-01T20:07:43.901Z,28.40
2023-05-01T20:10:13.001Z,29.05
2023-05-01T20:12:43.407Z,28.60
2023-05-01T20:15:12.920Z,29.40
2023-05-01T20:17:41.348Z,29.95
2023-05-01T20:20:11.461Z,30.73
2023-05-01T20:22:40.439Z,30.88
2023-05-01T20:25:11.680Z,30.60
2023-05-01T20:27:43.703Z,29.60
2023-05-01T20:30:13.024Z,30.55
2023-05-01T20:32:44.204Z,31.45
2023-05-01T20:35:13.889Z,31.50
2023-05-01T20:37:42.202Z,29.63
2023-05-01T20:40:17.315Z,29.02
2023-05-01T20:42:46.418Z,29.23
2023-05-01T20:45:14.988Z,30.33
2023-05-01T20:47:43.590Z,27.85
2023-05-01T20:50:12.912Z,26.40
2023-05-01T20:52:41.260Z,25.50
2023-05-01T20:55:12.329Z,24.60
2023-05-01T20:57:41.227Z,23.30
2023-05-01T21:00:11.454Z,24.15
2023-05-01T21:02:41.141Z,22.52
2023-05-01T21:05:11.307Z,23.77
2023-05-01T21:07:40.701Z,22.60
2023-05-01T21:10:16.506Z,21.25
2023-05-01T21:12:45.532Z,20.98
2023-05-01T21:15:14.355Z,20.27
2023-05-01T21:17:44.105Z,21.35
2023-05-01T21:20:17.623Z,21.02
2023-05-01T21:22:48.179Z,20.63
2023-05-01T21:25:27.053Z,21.38
2023-05-01T21:27:56.120Z,19.75
2023-05-01T21:30:33.462Z,18.60
2023-05-01T21:33:03.237Z,20.10
2023-05-01T21:35:32.238Z,20.00
2023-05-01T21:38:01.068Z,21.27
2023-05-01T21:40:30.900Z,19.23
2023-05-01T21:42:59.583Z,20.23
2023-05-01T21:45:29.362Z,20.30
2023-05-01T21:47:57.800Z,20.13
2023-05-01T21:50:26.545Z,20.23
2023-05-01T21:52:54.975Z,20.33
2023-05-01T21:55:27.058Z,20.45
2023-05-01T21:57:59.393Z,21.90
2023-05-01T22:00:29.887Z,21.73
2023-05-01T22:02:58.601Z,20.90
2023-05-01T22:05:29.283Z,22.25
2023-05-01T22:07:57.625Z,22.95
2023-05-01T22:10:26.584Z,22.63
2023-05-01T22:12:56.822Z,21.20
2023-05-01T22:15:25.447Z,20.80
2023-05-01T22:17:54.073Z,21.05
2023-05-01T22:20:22.787Z,20.42
2023-05-01T22:22:51.350Z,19.90
2023-05-01T22:25:19.857Z,20.90
2023-05-01T22:27:48.332Z,21.08
2023-05-01T22:30:18.519Z,20.77
2023-05-01T22:32:47.031Z,21.90
2023-05-01T22:35:15.552Z,21.00
2023-05-01T22:37:43.893Z,21.40
2023-05-01T22:40:13.209Z,20.95
2023-05-01T22:42:41.733Z,21.67
2023-05-01T22:45:10.933Z,21.08
2023-05-01T22:47:40.945Z,21.17
2023-05-01T22:50:11.408Z,21.63
2023-05-01T22:52:40.320Z,20.25
2023-05-01T22:55:09.587Z,20.33
2023-05-01T22:57:38.262Z,20.55
2023-05-01T23:00:09.726Z,20.75
2023-05-01T23:02:38.643Z,20.15
2023-05-01T23:05:11.617Z,20.73
2023-05-01T23:07:40.772Z,20.42
2023-05-01T23:10:10.457Z,20.48
2023-05-01T23:12:43.789Z,20.45
2023-05-01T23:15:14.496Z,19.90
2023-05-01T23:17:43.156Z,20.85
2023-05-01T23:20:22.715Z,21.45
2023-05-01T23:22:51.743Z,21.30
2023-05-01T23:25:25.756Z,20.60
2023-05-01T23:27:57.030Z,21.10
2023-05-01T23:30:25.965Z,19.50
2023-05-01T23:32:57.247Z,20.77
2023-05-01T23:35:28.236Z,21.17
2023-05-01T23:37:56.825Z,20.27
2023-05-01T23:40:26.032Z,20.00
2023-05-01T23:42:55.097Z,18.60
2023-05-01T23:45:24.047Z,17.08
2023-05-01T23:47:52.837Z,18.63
2023-05-01T23:50:21.434Z,17.27
2023-05-01T23:52:52.291Z,15.15
2023-05-01T23:55:20.677Z,13.18
2023-05-01T23:57:49.336Z,12.48
